sensor_id;sensor_type;location;lat;lon;timestamp;pressure;altitude;pressure_sealevel;temperature;humidity
79690;BME280;69156;55.932;-3.238;2023-05-09T00:01:10;100230.51;;;13.20;70.23
79690;BME280;69156;55.932;-3.238;2023-05-09T00:03:34;100231.88;;;13.16;71.04
79690;BME280;69156;55.932;-3.238;2023-05-09T00:05:59;100234.50;;;13.17;70.57
79690;BME280;69156;55.932;-3.238;2023-05-09T00:08:25;100234.73;;;13.11;70.74
79690;BME280;69156;55.932;-3.238;2023-05-09T00:10:50;100238.33;;;13.07;70.69
79690;BME280;69156;55.932;-3.238;2023-05-09T00:13:16;100238.07;;;12.98;71.49
79690;BME280;69156;55.932;-3.238;2023-05-09T00:15:41;100232.77;;;12.99;70.60
79690;BME280;69156;55.932;-3.238;2023-05-09T00:18:06;100231.62;;;12.95;70.62
79690;BME280;69156;55.932;-3.238;2023-05-09T00:20:31;100234.27;;;12.99;71.74
79690;BME280;69156;55.932;-3.238;2023-05-09T00:22:56;100235.00;;;12.91;71.65
79690;BME280;69156;55.932;-3.238;2023-05-09T00:25:22;100227.37;;;12.89;71.97
79690;BME280;69156;55.932;-3.238;2023-05-09T00:27:48;100221.98;;;12.90;71.23
79690;BME280;69156;55.932;-3.238;2023-05-09T00:30:14;100231.73;;;12.82;71.41
79690;BME280;69156;55.932;-3.238;2023-05-09T00:32:40;100235.20;;;12.85;70.10
79690;BME280;69156;55.932;-3.238;2023-05-09T00:35:06;100229.83;;;12.84;69.63
79690;BME280;69156;55.932;-3.238;2023-05-09T00:37:31;100225.73;;;12.77;71.78
79690;BME280;69156;55.932;-3.238;2023-05-09T00:39:56;100222.48;;;12.73;70.51
79690;BME280;69156;55.932;-3.238;2023-05-09T00:42:22;100222.47;;;12.79;70.83
79690;BME280;69156;55.932;-3.238;2023-05-09T00:44:47;100223.83;;;12.63;71.14
79690;BME280;69156;55.932;-3.238;2023-05-09T00:47:12;100227.08;;;12.52;71.58
79690;BME280;69156;55.932;-3.238;2023-05-09T00:49:37;100234.45;;;12.45;71.24
79690;BME280;69156;55.932;-3.238;2023-05-09T00:52:04;100233.98;;;12.67;71.37
79690;BME280;69156;55.932;-3.238;2023-05-09T00:54:29;100234.08;;;12.51;71.65
79690;BME280;69156;55.932;-3.238;2023-05-09T00:56:54;100233.15;;;12.52;71.61
79690;BME280;69156;55.932;-3.238;2023-05-09T00:59:19;100233.94;;;12.29;72.20
79690;BME280;69156;55.932;-3.238;2023-05-09T01:01:45;100236.10;;;12.21;72.95
79690;BME280;69156;55.932;-3.238;2023-05-09T01:04:11;100229.25;;;12.08;73.11
79690;BME280;69156;55.932;-3.238;2023-05-09T01:06:40;100226.40;;;12.13;73.45
79690;BME280;69156;55.932;-3.238;2023-05-09T01:09:04;100223.89;;;12.01;73.28
79690;BME280;69156;55.932;-3.238;2023-05-09T01:11:31;100226.46;;;12.05;73.75
79690;BME280;69156;55.932;-3.238;2023-05-09T01:13:58;100228.54;;;11.89;74.19
79690;BME280;69156;55.932;-3.238;2023-05-09T01:16:21;100227.30;;;11.91;73.68
79690;BME280;69156;55.932;-3.238;2023-05-09T01:18:46;100226.28;;;11.80;74.16
79690;BME280;69156;55.932;-3.238;2023-05-09T01:21:10;100222.17;;;11.83;74.50
79690;BME280;69156;55.932;-3.238;2023-05-09T01:23:52;100217.46;;;11.78;74.23
79690;BME280;69156;55.932;-3.238;2023-05-09T01:26:02;100215.02;;;11.80;74.48
79690;BME280;69156;55.932;-3.238;2023-05-09T01:28:34;100212.43;;;11.64;74.71
79690;BME280;69156;55.932;-3.238;2023-05-09T01:30:50;100216.83;;;11.79;74.35
79690;BME280;69156;55.932;-3.238;2023-05-09T01:33:16;100218.73;;;11.69;74.52
79690;BME280;69156;55.932;-3.238;2023-05-09T01:35:39;100213.64;;;11.77;74.33
79690;BME280;69156;55.932;-3.238;2023-05-09T01:38:09;100212.34;;;11.68;74.43
79690;BME280;69156;55.932;-3.238;2023-05-09T01:40:32;100213.09;;;11.65;74.18
79690;BME280;69156;55.932;-3.238;2023-05-09T01:42:57;100217.95;;;11.49;74.28
79690;BME280;69156;55.932;-3.238;2023-05-09T01:45:22;100217.29;;;11.53;74.79
79690;BME280;69156;55.932;-3.238;2023-05-09T01:47:48;100209.31;;;11.51;74.25
79690;BME280;69156;55.932;-3.238;2023-05-09T01:50:12;100206.13;;;11.51;73.82
79690;BME280;69156;55.932;-3.238;2023-05-09T01:52:39;100212.88;;;11.54;74.24
79690;BME280;69156;55.932;-3.238;2023-05-09T01:55:04;100219.20;;;11.42;73.70
79690;BME280;69156;55.932;-3.238;2023-05-09T01:57:29;100219.96;;;11.40;74.23
79690;BME280;69156;55.932;-3.238;2023-05-09T01:59:55;100217.01;;;11.54;74.28
79690;BME280;69156;55.932;-3.238;2023-05-09T02:02:20;100219.58;;;11.46;74.28
79690;BME280;69156;55.932;-3.238;2023-05-09T02:04:45;100220.52;;;11.33;74.60
79690;BME280;69156;55.932;-3.238;2023-05-09T02:07:10;100222.64;;;11.27;74.78
79690;BME280;69156;55.932;-3.238;2023-05-09T02:09:35;100225.86;;;11.39;74.65
79690;BME280;69156;55.932;-3.238;2023-05-09T02:12:00;100230.92;;;11.31;74.72
79690;BME280;69156;55.932;-3.238;2023-05-09T02:14:26;100234.82;;;11.35;75.04
79690;BME280;69156;55.932;-3.238;2023-05-09T02:16:51;100234.38;;;11.45;74.50
79690;BME280;69156;55.932;-3.238;2023-05-09T02:19:16;100232.71;;;11.38;74.43
79690;BME280;69156;55.932;-3.238;2023-05-09T02:21:42;100232.93;;;11.30;74.79
79690;BME280;69156;55.932;-3.238;2023-05-09T02:24:07;100230.18;;;11.52;74.39
79690;BME280;69156;55.932;-3.238;2023-05-09T02:26:34;100229.95;;;11.44;74.63
79690;BME280;69156;55.932;-3.238;2023-05-09T02:29:01;100224.51;;;11.46;74.85
79690;BME280;69156;55.932;-3.238;2023-05-09T02:31:26;100223.80;;;11.49;74.10
79690;BME280;69156;55.932;-3.238;2023-05-09T02:33:51;100224.96;;;11.31;74.06
79690;BME280;69156;55.932;-3.238;2023-05-09T02:36:15;100224.38;;;11.30;73.99
79690;BME280;69156;55.932;-3.238;2023-05-09T02:38:41;100224.42;;;11.30;73.86
79690;BME280;69156;55.932;-3.238;2023-05-09T02:41:06;100219.74;;;11.22;74.32
79690;BME280;69156;55.932;-3.238;2023-05-09T02:43:31;100224.52;;;11.36;74.05
79690;BME280;69156;55.932;-3.238;2023-05-09T02:45:56;100225.76;;;11.24;74.10
79690;BME280;69156;55.932;-3.238;2023-05-09T02:48:21;100228.46;;;11.19;74.28
79690;BME280;69156;55.932;-3.238;2023-05-09T02:50:47;100228.46;;;11.16;74.46
79690;BME280;69156;55.932;-3.238;2023-05-09T02:53:12;100234.37;;;11.26;74.66
79690;BME280;69156;55.932;-3.238;2023-05-09T02:55:37;100236.29;;;11.21;74.73
79690;BME280;69156;55.932;-3.238;2023-05-09T02:58:03;100239.35;;;11.30;75.17
79690;BME280;69156;55.932;-3.238;2023-05-09T03:00:29;100240.24;;;11.17;75.13
79690;BME280;69156;55.932;-3.238;2023-05-09T03:02:55;100240.05;;;11.06;75.22
79690;BME280;69156;55.932;-3.238;2023-05-09T03:05:20;100240.03;;;10.99;75.44
79690;BME280;69156;55.932;-3.238;2023-05-09T03:07:46;100240.81;;;11.11;75.67
79690;BME280;69156;55.932;-3.238;2023-05-09T03:10:12;100242.10;;;11.08;75.33
79690;BME280;69156;55.932;-3.238;2023-05-09T03:12:37;100238.34;;;11.36;74.87
79690;BME280;69156;55.932;-3.238;2023-05-09T03:15:03;100235.68;;;11.25;74.92
79690;BME280;69156;55.932;-3.238;2023-05-09T03:17:28;100239.62;;;11.32;75.15
79690;BME280;69156;55.932;-3.238;2023-05-09T03:19:53;100240.24;;;11.27;74.97
79690;BME280;69156;55.932;-3.238;2023-05-09T03:22:19;100239.96;;;11.31;74.65
79690;BME280;69156;55.932;-3.238;2023-05-09T03:24:43;100240.48;;;11.33;74.68
79690;BME280;69156;55.932;-3.238;2023-05-09T03:27:09;100241.44;;;11.46;74.73
79690;BME280;69156;55.932;-3.238;2023-05-09T03:29:34;100240.43;;;11.47;74.87
79690;BME280;69156;55.932;-3.238;2023-05-09T03:32:00;100240.96;;;11.54;74.75
79690;BME280;69156;55.932;-3.238;2023-05-09T03:34:25;100240.01;;;11.51;74.44
79690;BME280;69156;55.932;-3.238;2023-05-09T03:36:50;100237.31;;;11.69;74.31
79690;BME280;69156;55.932;-3.238;2023-05-09T03:39:15;100236.10;;;11.64;74.53
79690;BME280;69156;55.932;-3.238;2023-05-09T03:41:40;100235.03;;;11.59;74.38
79690;BME280;69156;55.932;-3.238;2023-05-09T03:44:06;100237.47;;;11.56;74.54
79690;BME280;69156;55.932;-3.238;2023-05-09T03:46:32;100227.02;;;11.73;74.48
79690;BME280;69156;55.932;-3.238;2023-05-09T03:48:57;100231.08;;;11.62;74.59
79690;BME280;69156;55.932;-3.238;2023-05-09T03:51:22;100232.16;;;11.85;74.59
79690;BME280;69156;55.932;-3.238;2023-05-09T03:53:48;100232.23;;;11.88;74.66
79690;BME280;69156;55.932;-3.238;2023-05-09T03:56:13;100231.27;;;11.81;74.54
79690;BME280;69156;55.932;-3.238;2023-05-09T03:58:39;100229.29;;;11.88;74.80
79690;BME280;69156;55.932;-3.238;2023-05-09T04:01:04;100226.18;;;11.92;74.92
79690;BME280;69156;55.932;-3.238;2023-05-09T04:03:30;100226.80;;;11.79;74.84
79690;BME280;69156;55.932;-3.238;2023-05-09T04:05:55;100230.52;;;11.73;75.18
79690;BME280;69156;55.932;-3.238;2023-05-09T04:08:21;100231.02;;;11.84;75.16
79690;BME280;69156;55.932;-3.238;2023-05-09T04:10:46;100234.09;;;11.82;75.07
79690;BME280;69156;55.932;-3.238;2023-05-09T04:13:11;100232.01;;;11.75;74.98
79690;BME280;69156;55.932;-3.238;2023-05-09T04:15:37;100230.99;;;11.70;75.22
79690;BME280;69156;55.932;-3.238;2023-05-09T04:18:03;100228.76;;;11.53;75.55
79690;BME280;69156;55.932;-3.238;2023-05-09T04:20:28;100223.58;;;11.71;75.50
79690;BME280;69156;55.932;-3.238;2023-05-09T04:22:54;100222.28;;;11.66;75.69
79690;BME280;69156;55.932;-3.238;2023-05-09T04:25:19;100222.48;;;11.64;76.54
79690;BME280;69156;55.932;-3.238;2023-05-09T04:27:44;100217.05;;;11.68;76.54
79690;BME280;69156;55.932;-3.238;2023-05-09T04:30:10;100218.27;;;11.74;76.82
79690;BME280;69156;55.932;-3.238;2023-05-09T04:32:35;100217.13;;;11.91;76.83
79690;BME280;69156;55.932;-3.238;2023-05-09T04:35:00;100217.66;;;11.67;77.31
79690;BME280;69156;55.932;-3.238;2023-05-09T04:37:26;100215.02;;;11.61;77.14
79690;BME280;69156;55.932;-3.238;2023-05-09T04:39:51;100218.01;;;11.79;77.06
79690;BME280;69156;55.932;-3.238;2023-05-09T04:42:16;100220.68;;;11.73;77.07
79690;BME280;69156;55.932;-3.238;2023-05-09T04:44:41;100220.42;;;11.86;77.02
79690;BME280;69156;55.932;-3.238;2023-05-09T04:47:07;100221.82;;;11.91;77.15
79690;BME280;69156;55.932;-3.238;2023-05-09T04:49:33;100220.19;;;11.92;77.07
79690;BME280;69156;55.932;-3.238;2023-05-09T04:51:59;100219.37;;;11.95;77.12
79690;BME280;69156;55.932;-3.238;2023-05-09T04:54:25;100215.91;;;11.97;77.10
79690;BME280;69156;55.932;-3.238;2023-05-09T04:56:50;100213.45;;;12.13;77.09
79690;BME280;69156;55.932;-3.238;2023-05-09T04:59:15;100212.23;;;11.98;77.02
79690;BME280;69156;55.932;-3.238;2023-05-09T05:01:41;100212.07;;;12.09;76.87
79690;BME280;69156;55.932;-3.238;2023-05-09T05:04:06;100212.91;;;12.25;76.39
79690;BME280;69156;55.932;-3.238;2023-05-09T05:06:32;100210.77;;;12.16;76.31
79690;BME280;69156;55.932;-3.238;2023-05-09T05:08:57;100212.60;;;12.15;76.08
79690;BME280;69156;55.932;-3.238;2023-05-09T05:11:23;100208.91;;;12.01;76.04
79690;BME280;69156;55.932;-3.238;2023-05-09T05:13:48;100211.33;;;12.22;75.99
79690;BME280;69156;55.932;-3.238;2023-05-09T05:16:14;100206.12;;;12.15;75.98
79690;BME280;69156;55.932;-3.238;2023-05-09T05:18:40;100209.93;;;12.15;76.08
79690;BME280;69156;55.932;-3.238;2023-05-09T05:21:05;100211.49;;;12.18;76.35
79690;BME280;69156;55.932;-3.238;2023-05-09T05:23:31;100211.03;;;12.15;75.73
79690;BME280;69156;55.932;-3.238;2023-05-09T05:25:57;100204.42;;;12.29;75.10
79690;BME280;69156;55.932;-3.238;2023-05-09T05:28:22;100205.71;;;12.20;75.60
79690;BME280;69156;55.932;-3.238;2023-05-09T05:30:48;100203.54;;;12.25;75.29
79690;BME280;69156;55.932;-3.238;2023-05-09T05:33:13;100210.11;;;12.26;75.33
79690;BME280;69156;55.932;-3.238;2023-05-09T05:35:39;100218.63;;;12.15;75.95
79690;BME280;69156;55.932;-3.238;2023-05-09T05:38:05;100215.89;;;12.33;76.23
79690;BME280;69156;55.932;-3.238;2023-05-09T05:40:30;100213.71;;;12.48;75.52
79690;BME280;69156;55.932;-3.238;2023-05-09T05:42:56;100211.59;;;12.53;75.45
79690;BME280;69156;55.932;-3.238;2023-05-09T05:45:22;100212.32;;;12.50;75.05
79690;BME280;69156;55.932;-3.238;2023-05-09T05:47:47;100213.24;;;12.72;74.74
79690;BME280;69156;55.932;-3.238;2023-05-09T05:50:12;100216.17;;;12.70;74.26
79690;BME280;69156;55.932;-3.238;2023-05-09T05:52:38;100218.91;;;12.85;74.16
79690;BME280;69156;55.932;-3.238;2023-05-09T05:55:03;100221.05;;;12.82;74.52
79690;BME280;69156;55.932;-3.238;2023-05-09T05:57:28;100221.64;;;12.81;73.68
79690;BME280;69156;55.932;-3.238;2023-05-09T05:59:54;100223.19;;;12.77;74.07
79690;BME280;69156;55.932;-3.238;2023-05-09T06:02:20;100221.91;;;12.79;74.46
79690;BME280;69156;55.932;-3.238;2023-05-09T06:04:45;100222.48;;;12.87;73.86
79690;BME280;69156;55.932;-3.238;2023-05-09T06:07:10;100225.37;;;12.89;73.97
79690;BME280;69156;55.932;-3.238;2023-05-09T06:09:36;100225.38;;;12.88;73.72
79690;BME280;69156;55.932;-3.238;2023-05-09T06:12:01;100224.22;;;12.96;73.97
79690;BME280;69156;55.932;-3.238;2023-05-09T06:14:27;100224.66;;;12.99;74.21
79690;BME280;69156;55.932;-3.238;2023-05-09T06:16:52;100223.35;;;13.18;72.13
79690;BME280;69156;55.932;-3.238;2023-05-09T06:19:17;100222.33;;;13.10;72.09
79690;BME280;69156;55.932;-3.238;2023-05-09T06:21:43;100216.76;;;13.21;71.69
79690;BME280;69156;55.932;-3.238;2023-05-09T06:24:09;100216.54;;;13.19;71.78
79690;BME280;69156;55.932;-3.238;2023-05-09T06:26:34;100215.80;;;13.15;70.48
79690;BME280;69156;55.932;-3.238;2023-05-09T06:28:59;100218.37;;;13.21;70.36
79690;BME280;69156;55.932;-3.238;2023-05-09T06:31:24;100218.33;;;13.29;70.35
79690;BME280;69156;55.932;-3.238;2023-05-09T06:33:50;100216.46;;;13.33;69.72
79690;BME280;69156;55.932;-3.238;2023-05-09T06:36:15;100214.47;;;13.61;69.31
79690;BME280;69156;55.932;-3.238;2023-05-09T06:39:03;100209.76;;;13.53;69.18
79690;BME280;69156;55.932;-3.238;2023-05-09T06:41:05;100208.19;;;13.39;69.40
79690;BME280;69156;55.932;-3.238;2023-05-09T06:43:31;100211.22;;;13.30;68.72
79690;BME280;69156;55.932;-3.238;2023-05-09T06:45:56;100212.71;;;13.27;68.87
79690;BME280;69156;55.932;-3.238;2023-05-09T06:48:21;100208.61;;;13.11;68.95
79690;BME280;69156;55.932;-3.238;2023-05-09T06:50:47;100209.81;;;13.16;69.32
79690;BME280;69156;55.932;-3.238;2023-05-09T06:53:12;100213.24;;;13.17;69.14
79690;BME280;69156;55.932;-3.238;2023-05-09T06:55:37;100212.26;;;13.24;68.67
79690;BME280;69156;55.932;-3.238;2023-05-09T06:58:03;100210.64;;;13.38;68.39
79690;BME280;69156;55.932;-3.238;2023-05-09T07:00:29;100203.95;;;13.38;67.69
79690;BME280;69156;55.932;-3.238;2023-05-09T07:02:54;100203.19;;;13.29;67.40
79690;BME280;69156;55.932;-3.238;2023-05-09T07:05:20;100200.85;;;13.22;67.79
79690;BME280;69156;55.932;-3.238;2023-05-09T07:07:46;100198.67;;;13.31;67.60
79690;BME280;69156;55.932;-3.238;2023-05-09T07:10:11;100197.95;;;13.42;67.59
79690;BME280;69156;55.932;-3.238;2023-05-09T07:14:37;100198.94;;;13.23;67.49
79690;BME280;69156;55.932;-3.238;2023-05-09T07:21:04;100194.73;;;13.61;65.52
79690;BME280;69156;55.932;-3.238;2023-05-09T07:23:30;100191.62;;;13.80;65.34
79690;BME280;69156;55.932;-3.238;2023-05-09T07:25:55;100190.73;;;13.79;65.01
79690;BME280;69156;55.932;-3.238;2023-05-09T07:28:20;100189.72;;;13.95;64.51
79690;BME280;69156;55.932;-3.238;2023-05-09T07:30:46;100185.76;;;13.98;64.20
79690;BME280;69156;55.932;-3.238;2023-05-09T07:33:12;100185.60;;;14.03;63.66
79690;BME280;69156;55.932;-3.238;2023-05-09T07:35:37;100184.20;;;14.00;63.57
79690;BME280;69156;55.932;-3.238;2023-05-09T07:38:03;100183.54;;;13.95;63.41
79690;BME280;69156;55.932;-3.238;2023-05-09T07:40:28;100179.90;;;13.89;63.29
79690;BME280;69156;55.932;-3.238;2023-05-09T07:42:54;100180.44;;;13.89;63.56
79690;BME280;69156;55.932;-3.238;2023-05-09T07:45:19;100178.87;;;13.92;63.51
79690;BME280;69156;55.932;-3.238;2023-05-09T07:47:45;100180.55;;;14.09;62.95
79690;BME280;69156;55.932;-3.238;2023-05-09T07:50:11;100174.06;;;14.18;62.09
79690;BME280;69156;55.932;-3.238;2023-05-09T07:52:36;100172.66;;;14.10;61.53
79690;BME280;69156;55.932;-3.238;2023-05-09T07:55:01;100168.96;;;14.16;61.11
79690;BME280;69156;55.932;-3.238;2023-05-09T07:57:26;100166.98;;;14.36;60.68
79690;BME280;69156;55.932;-3.238;2023-05-09T07:59:51;100167.05;;;14.38;61.04
79690;BME280;69156;55.932;-3.238;2023-05-09T08:02:17;100168.14;;;14.38;60.17
79690;BME280;69156;55.932;-3.238;2023-05-09T08:04:42;100168.18;;;14.41;60.44
79690;BME280;69156;55.932;-3.238;2023-05-09T08:07:07;100169.08;;;14.47;60.35
79690;BME280;69156;55.932;-3.238;2023-05-09T08:09:33;100162.57;;;14.50;60.50
79690;BME280;69156;55.932;-3.238;2023-05-09T08:11:58;100159.29;;;14.87;60.36
79690;BME280;69156;55.932;-3.238;2023-05-09T08:14:24;100158.62;;;15.22;59.69
79690;BME280;69156;55.932;-3.238;2023-05-09T08:16:49;100158.72;;;15.26;58.70
79690;BME280;69156;55.932;-3.238;2023-05-09T08:19:15;100163.62;;;15.09;57.17
79690;BME280;69156;55.932;-3.238;2023-05-09T08:21:40;100159.45;;;14.81;57.63
79690;BME280;69156;55.932;-3.238;2023-05-09T08:24:08;100158.73;;;15.06;57.23
79690;BME280;69156;55.932;-3.238;2023-05-09T08:26:34;100159.72;;;14.81;57.43
79690;BME280;69156;55.932;-3.238;2023-05-09T08:29:00;100164.19;;;15.02;58.01
79690;BME280;69156;55.932;-3.238;2023-05-09T08:31:25;100158.21;;;14.96;57.01
79690;BME280;69156;55.932;-3.238;2023-05-09T08:33:50;100159.57;;;14.78;57.35
79690;BME280;69156;55.932;-3.238;2023-05-09T08:36:15;100163.50;;;15.03;56.84
79690;BME280;69156;55.932;-3.238;2023-05-09T08:38:40;100157.81;;;14.95;56.85
79690;BME280;69156;55.932;-3.238;2023-05-09T08:41:06;100165.21;;;14.94;57.30
79690;BME280;69156;55.932;-3.238;2023-05-09T08:43:33;100166.94;;;15.04;55.87
79690;BME280;69156;55.932;-3.238;2023-05-09T08:45:59;100164.18;;;14.94;57.04
79690;BME280;69156;55.932;-3.238;2023-05-09T08:48:23;100166.36;;;15.38;55.09
79690;BME280;69156;55.932;-3.238;2023-05-09T08:50:48;100163.27;;;15.43;52.87
79690;BME280;69156;55.932;-3.238;2023-05-09T08:53:14;100161.97;;;15.20;53.23
79690;BME280;69156;55.932;-3.238;2023-05-09T08:55:40;100167.20;;;15.13;53.86
79690;BME280;69156;55.932;-3.238;2023-05-09T08:58:05;100168.39;;;14.99;54.44
79690;BME280;69156;55.932;-3.238;2023-05-09T09:00:30;100170.88;;;15.03;54.02
79690;BME280;69156;55.932;-3.238;2023-05-09T09:03:00;100176.37;;;14.77;54.51
79690;BME280;69156;55.932;-3.238;2023-05-09T09:05:22;100173.12;;;14.87;53.71
79690;BME280;69156;55.932;-3.238;2023-05-09T09:07:46;100176.29;;;14.91;54.26
79690;BME280;69156;55.932;-3.238;2023-05-09T09:10:12;100174.92;;;14.98;53.94
79690;BME280;69156;55.932;-3.238;2023-05-09T09:12:37;100177.72;;;14.82;54.48
79690;BME280;69156;55.932;-3.238;2023-05-09T09:15:04;100176.64;;;15.12;54.81
79690;BME280;69156;55.932;-3.238;2023-05-09T09:17:30;100177.84;;;15.29;55.00
79690;BME280;69156;55.932;-3.238;2023-05-09T09:19:57;100171.55;;;15.43;53.62
79690;BME280;69156;55.932;-3.238;2023-05-09T09:22:19;100173.99;;;15.17;54.10
79690;BME280;69156;55.932;-3.238;2023-05-09T09:24:45;100175.92;;;15.12;54.01
79690;BME280;69156;55.932;-3.238;2023-05-09T09:27:10;100174.97;;;15.19;53.94
79690;BME280;69156;55.932;-3.238;2023-05-09T09:29:35;100167.03;;;15.54;53.16
79690;BME280;69156;55.932;-3.238;2023-05-09T09:32:02;100173.00;;;15.64;52.98
79690;BME280;69156;55.932;-3.238;2023-05-09T09:34:26;100172.78;;;15.33;53.26
79690;BME280;69156;55.932;-3.238;2023-05-09T09:36:51;100168.73;;;15.39;53.91
79690;BME280;69156;55.932;-3.238;2023-05-09T09:39:17;100168.38;;;15.75;54.12
79690;BME280;69156;55.932;-3.238;2023-05-09T09:41:43;100166.59;;;16.02;52.60
79690;BME280;69156;55.932;-3.238;2023-05-09T09:44:09;100165.19;;;16.02;49.87
79690;BME280;69156;55.932;-3.238;2023-05-09T09:46:41;100167.92;;;15.83;50.19
79690;BME280;69156;55.932;-3.238;2023-05-09T09:48:58;100164.86;;;15.96;49.90
79690;BME280;69156;55.932;-3.238;2023-05-09T09:51:26;100165.52;;;16.18;50.74
79690;BME280;69156;55.932;-3.238;2023-05-09T09:53:50;100161.22;;;15.98;51.06
79690;BME280;69156;55.932;-3.238;2023-05-09T09:56:15;100162.62;;;16.05;51.39
79690;BME280;69156;55.932;-3.238;2023-05-09T09:58:40;100160.70;;;16.50;51.15
79690;BME280;69156;55.932;-3.238;2023-05-09T10:01:06;100161.48;;;16.56;48.96
79690;BME280;69156;55.932;-3.238;2023-05-09T10:03:34;100166.21;;;16.40;49.51
79690;BME280;69156;55.932;-3.238;2023-05-09T10:06:00;100166.43;;;16.09;49.78
79690;BME280;69156;55.932;-3.238;2023-05-09T10:08:21;100167.81;;;15.93;51.08
79690;BME280;69156;55.932;-3.238;2023-05-09T10:10:47;100166.63;;;15.80;51.14
79690;BME280;69156;55.932;-3.238;2023-05-09T10:13:12;100167.71;;;15.94;50.43
79690;BME280;69156;55.932;-3.238;2023-05-09T10:15:39;100168.56;;;16.26;49.76
79690;BME280;69156;55.932;-3.238;2023-05-09T10:18:03;100167.28;;;16.23;48.77
79690;BME280;69156;55.932;-3.238;2023-05-09T10:20:30;100168.37;;;16.55;47.64
79690;BME280;69156;55.932;-3.238;2023-05-09T10:22:57;100164.79;;;16.39;47.41
79690;BME280;69156;55.932;-3.238;2023-05-09T10:25:23;100161.03;;;16.49;46.95
79690;BME280;69156;55.932;-3.238;2023-05-09T10:27:47;100157.91;;;16.82;47.82
79690;BME280;69156;55.932;-3.238;2023-05-09T10:30:16;100158.74;;;16.86;46.91
79690;BME280;69156;55.932;-3.238;2023-05-09T10:32:42;100157.76;;;17.02;46.85
79690;BME280;69156;55.932;-3.238;2023-05-09T10:35:06;100157.63;;;17.15;46.40
79690;BME280;69156;55.932;-3.238;2023-05-09T10:37:28;100162.67;;;16.71;46.96
79690;BME280;69156;55.932;-3.238;2023-05-09T10:39:56;100160.71;;;16.41;48.92
79690;BME280;69156;55.932;-3.238;2023-05-09T10:42:21;100159.67;;;16.41;49.14
79690;BME280;69156;55.932;-3.238;2023-05-09T10:44:46;100153.18;;;16.88;47.50
79690;BME280;69156;55.932;-3.238;2023-05-09T10:47:11;100154.06;;;16.92;48.05
79690;BME280;69156;55.932;-3.238;2023-05-09T10:49:37;100154.57;;;16.93;47.12
79690;BME280;69156;55.932;-3.238;2023-05-09T10:52:02;100154.21;;;16.98;46.84
79690;BME280;69156;55.932;-3.238;2023-05-09T10:54:30;100156.67;;;16.98;44.42
79690;BME280;69156;55.932;-3.238;2023-05-09T10:56:54;100155.20;;;16.92;45.49
79690;BME280;69156;55.932;-3.238;2023-05-09T10:59:37;100157.08;;;16.49;47.83
79690;BME280;69156;55.932;-3.238;2023-05-09T11:01:45;100159.44;;;16.60;46.83
79690;BME280;69156;55.932;-3.238;2023-05-09T11:04:11;100159.11;;;16.43;47.74
79690;BME280;69156;55.932;-3.238;2023-05-09T11:06:45;100157.65;;;16.57;47.19
79690;BME280;69156;55.932;-3.238;2023-05-09T11:09:22;100155.96;;;16.26;47.20
79690;BME280;69156;55.932;-3.238;2023-05-09T11:11:28;100156.85;;;16.19;48.34
79690;BME280;69156;55.932;-3.238;2023-05-09T11:13:56;100153.63;;;15.93;48.93
79690;BME280;69156;55.932;-3.238;2023-05-09T11:16:16;100151.06;;;15.91;50.50
79690;BME280;69156;55.932;-3.238;2023-05-09T11:18:51;100158.72;;;15.79;51.48
79690;BME280;69156;55.932;-3.238;2023-05-09T11:21:08;100159.29;;;15.75;51.30
79690;BME280;69156;55.932;-3.238;2023-05-09T11:23:34;100155.89;;;15.59;52.34
79690;BME280;69156;55.932;-3.238;2023-05-09T11:26:04;100154.28;;;15.73;51.52
79690;BME280;69156;55.932;-3.238;2023-05-09T11:28:26;100156.29;;;15.65;51.10
79690;BME280;69156;55.932;-3.238;2023-05-09T11:30:50;100155.92;;;15.78;51.45
79690;BME280;69156;55.932;-3.238;2023-05-09T11:33:22;100155.87;;;15.84;52.07
79690;BME280;69156;55.932;-3.238;2023-05-09T11:35:42;100152.47;;;16.15;49.35
79690;BME280;69156;55.932;-3.238;2023-05-09T11:38:07;100143.19;;;16.58;49.01
79690;BME280;69156;55.932;-3.238;2023-05-09T11:40:34;100140.11;;;16.63;47.28
79690;BME280;69156;55.932;-3.238;2023-05-09T11:43:00;100139.86;;;16.61;46.94
79690;BME280;69156;55.932;-3.238;2023-05-09T11:45:26;100148.65;;;16.48;45.90
79690;BME280;69156;55.932;-3.238;2023-05-09T11:47:50;100147.85;;;16.26;47.32
79690;BME280;69156;55.932;-3.238;2023-05-09T11:50:16;100152.52;;;16.05;47.05
79690;BME280;69156;55.932;-3.238;2023-05-09T11:52:41;100153.95;;;15.99;47.19
79690;BME280;69156;55.932;-3.238;2023-05-09T11:55:07;100147.87;;;15.90;47.18
79690;BME280;69156;55.932;-3.238;2023-05-09T11:57:32;100151.07;;;15.86;46.97
79690;BME280;69156;55.932;-3.238;2023-05-09T11:59:59;100146.10;;;16.00;46.91
79690;BME280;69156;55.932;-3.238;2023-05-09T12:02:23;100146.22;;;16.16;47.15
79690;BME280;69156;55.932;-3.238;2023-05-09T12:04:48;100143.31;;;16.21;46.98
79690;BME280;69156;55.932;-3.238;2023-05-09T12:07:14;100141.69;;;16.69;46.15
79690;BME280;69156;55.932;-3.238;2023-05-09T12:09:39;100137.89;;;16.64;43.11
79690;BME280;69156;55.932;-3.238;2023-05-09T12:12:12;100135.80;;;16.53;40.86
79690;BME280;69156;55.932;-3.238;2023-05-09T12:14:31;100137.33;;;16.17;40.66
79690;BME280;69156;55.932;-3.238;2023-05-09T12:16:56;100134.69;;;16.29;42.46
79690;BME280;69156;55.932;-3.238;2023-05-09T12:19:22;100129.52;;;16.62;43.27
79690;BME280;69156;55.932;-3.238;2023-05-09T12:21:46;100132.76;;;16.94;40.72
79690;BME280;69156;55.932;-3.238;2023-05-09T12:24:12;100134.99;;;16.82;41.66
79690;BME280;69156;55.932;-3.238;2023-05-09T12:26:38;100131.41;;;17.01;42.46
79690;BME280;69156;55.932;-3.238;2023-05-09T12:29:03;100120.72;;;17.24;41.85
79690;BME280;69156;55.932;-3.238;2023-05-09T12:31:28;100121.07;;;17.39;42.59
79690;BME280;69156;55.932;-3.238;2023-05-09T12:33:54;100117.80;;;17.23;42.68
79690;BME280;69156;55.932;-3.238;2023-05-09T12:36:20;100112.29;;;17.26;42.48